This is the latest recevied weather packets stored in our database for station/object KU9TRY. If no packets are shown the sender has not sent any weather packets the latest 10 day(s).
| Time | Temp. | Humidity | Pressure | Rain* | Wind** | Luminosity | Snow |
|---|---|---|---|---|---|---|---|
| 1777343072 | 24.44° C | 54% | 1013.8 hPa | 0 mm | - | 0 W/m² | - |
| 1777342465 | 24.44° C | 56% | 1013.5 hPa | 0 mm | - | 0 W/m² | - |
| 1777342162 | 25° C | 54% | 1013.4 hPa | 0 mm | - | 0 W/m² | - |
| 1777341858 | 25° C | 55% | 1013.4 hPa | 0 mm | - | 0 W/m² | - |
| 1777341554 | 25° C | 54% | 1013.2 hPa | 0 mm | - | 0 W/m² | - |
| 1777341251 | 25° C | 54% | 1013.1 hPa | 0 mm | - | 0 W/m² | - |
| 1777340947 | 25° C | 54% | 1013.3 hPa | 0 mm | - | 0 W/m² | - |
| 1777340646 | 25° C | 54% | 1013.2 hPa | 0 mm | - | 0 W/m² | - |
| 1777340343 | 25° C | 53% | 1013 hPa | 0 mm | - | 0 W/m² | - |
| 1777340039 | 25° C | 53% | 1013 hPa | 0 mm | - | 0 W/m² | - |
| 1777339737 | 25° C | 53% | 1012.7 hPa | 0 mm | - | 0 W/m² | - |
| 1777339435 | 25° C | 53% | 1012.9 hPa | 0 mm | - | 0 W/m² | - |
| 1777339132 | 25° C | 53% | 1012.7 hPa | 0 mm | - | 0 W/m² | - |
| 1777338830 | 25° C | 53% | 1012.7 hPa | 0 mm | - | 0 W/m² | - |
| 1777338526 | 25.56° C | 53% | 1012.6 hPa | 0 mm | - | 0 W/m² | - |
| 1777338224 | 25.56° C | 52% | 1012.8 hPa | 0 mm | - | 0 W/m² | - |
| 1777337919 | 25° C | 53% | 1012.7 hPa | 0 mm | - | 0 W/m² | - |
| 1777336710 | 25.56° C | 53% | 1012.6 hPa | 0 mm | - | 0 W/m² | - |
| 1777336408 | 25.56° C | 52% | 1012.6 hPa | 0 mm | - | 1 W/m² | - |
| 1777312792 | 26.67° C | 52% | 1015.7 hPa | 0 mm | - | 226 W/m² | - |
| 1777312489 | 26.67° C | 50% | 1015.6 hPa | 0 mm | - | 289 W/m² | - |
| 1777311580 | 26.11° C | 53% | 1015.8 hPa | 0 mm | - | 405 W/m² | - |
| 1777311278 | 26.11° C | 53% | 1016 hPa | 0 mm | - | 437 W/m² | - |
| 1777310975 | 26.11° C | 52% | 1016.1 hPa | 0 mm | - | 419 W/m² | - |
| 1777310673 | 26.67° C | 51% | 1016 hPa | 0 mm | - | 577 W/m² | - |
* Rain latest hour (hover to see other rain measurements)
** Current wind speed in m/s (hover to see current wind gust speed)